createdAt,value
2022-08-20T00:13:59.259Z,32.2808
2022-08-20T00:29:01.079Z,32.5965
2022-08-20T00:44:02.910Z,32.6776
2022-08-20T00:59:04.724Z,33.4217
2022-08-20T01:14:06.543Z,33.0063
2022-08-20T01:29:08.437Z,32.9704
2022-08-20T01:44:16.007Z,31.8004
2022-08-20T01:59:20.267Z,31.9465
2022-08-20T02:14:22.107Z,32.7073
2022-08-20T02:29:23.941Z,30.2138
2022-08-20T02:44:25.757Z,29.7551
2022-08-20T02:59:27.608Z,31.9069
2022-08-20T03:14:29.453Z,31.3089
2022-08-20T03:29:31.278Z,31.3281
2022-08-20T03:44:33.099Z,29.9439
2022-08-20T03:59:34.945Z,29.843
2022-08-20T04:14:36.823Z,29.973
2022-08-20T04:29:38.672Z,30.0708
2022-08-20T04:44:40.500Z,30.7208
2022-08-20T04:59:42.318Z,31.1368
2022-08-20T05:14:44.166Z,30.8087
2022-08-20T05:29:46.084Z,31.3448
2022-08-20T05:44:50.354Z,31.5528
2022-08-20T05:59:52.243Z,31.6797
2022-08-20T06:14:54.055Z,31.4426
2022-08-20T06:29:55.863Z,28.3579
2022-08-20T06:44:57.687Z,27.698
2022-08-20T06:59:59.576Z,28.543
2022-08-20T07:15:01.411Z,28.0911
2022-08-20T07:30:03.226Z,27.9023
2022-08-20T07:45:05.099Z,32.9308
2022-08-20T08:00:06.977Z,33.1555
2022-08-20T08:15:08.820Z,33.1877
2022-08-20T08:30:10.691Z,30.4484
2022-08-20T08:45:12.507Z,31.3677
2022-08-20T09:00:14.302Z,30.9096
2022-08-20T09:15:16.141Z,31.6958
2022-08-20T09:30:18.526Z,29.6288
2022-08-20T09:45:20.406Z,30.7307
2022-08-20T10:00:22.249Z,28.7448
2022-08-20T10:15:24.069Z,33.4805
2022-08-20T10:30:25.886Z,30.7276
2022-08-20T10:45:27.725Z,29.7656
2022-08-20T11:00:29.573Z,33.4056
2022-08-20T11:15:31.373Z,34.1955
2022-08-20T11:30:33.154Z,31.3386
2022-08-20T11:45:37.390Z,29.2227
2022-08-20T12:00:39.719Z,31.6246
2022-08-20T12:15:41.558Z,32.4956
2022-08-20T12:30:43.382Z,31.4754
2022-08-20T12:45:45.195Z,30.5258
2022-08-20T13:00:50.577Z,32.6937
2022-08-20T13:15:53.083Z,27.3761
2022-08-20T13:30:54.942Z,27.4052
2022-08-20T13:45:56.758Z,30.025
2022-08-20T14:00:58.617Z,27.7723
2022-08-20T14:16:00.454Z,32.001
2022-08-20T14:31:02.257Z,29.8888
2022-08-20T14:46:04.101Z,30.4088
2022-08-20T15:01:05.997Z,30.0219
2022-08-20T15:16:07.872Z,30.194
2022-08-20T15:31:09.691Z,29.7718
2022-08-20T15:46:11.550Z,29.4567
2022-08-20T16:01:24.536Z,31.0297
2022-08-20T16:16:26.817Z,31.2179
2022-08-20T16:31:28.646Z,32.2938
2022-08-20T16:46:31.686Z,31.8097
2022-08-20T17:01:35.855Z,33.6526
2022-08-20T17:16:37.696Z,33.8835
2022-08-20T17:31:39.523Z,34.2054
2022-08-20T17:46:41.354Z,30.4645
2022-08-20T18:01:43.229Z,34.3874
2022-08-20T18:16:45.102Z,34.7972
2022-08-20T18:31:46.918Z,35.2553
2022-08-20T18:46:48.772Z,35.3754
2022-08-20T19:01:50.641Z,35.4961
2022-08-20T19:16:52.521Z,35.8793
2022-08-20T19:31:54.369Z,35.8502
2022-08-20T19:46:56.190Z,35.7691
2022-08-20T20:01:58.101Z,35.883
2022-08-20T20:17:00.006Z,33.5622
2022-08-20T20:32:01.830Z,33.9101
2022-08-20T20:47:03.668Z,34.4753
2022-08-20T21:02:05.658Z,34.1311
2022-08-20T21:17:07.634Z,35.5518
2022-08-20T21:32:09.502Z,35.7301
2022-08-20T21:47:14.888Z,35.688
2022-08-20T22:02:16.711Z,35.623
2022-08-20T22:17:18.527Z,35.7369
2022-08-20T22:32:20.370Z,35.974
2022-08-20T22:47:34.466Z,36.1071
2022-08-20T23:02:36.304Z,35.8409
2022-08-20T23:17:38.150Z,35.896
2022-08-20T23:32:39.987Z,36.3541
2022-08-20T23:47:41.805Z,36.7701
